Time;durP1;ratioP1;P1;durP2;ratioP2;P2;SDS_P1;SDS_P2;PMS_P1;PMS_P2;Temp;Humidity;BMP_temperature;BMP_pressure;BME280_temperature;BME280_humidity;BME280_pressure;Samples;Min_cycle;Max_cycle;Signal;HPM_P1;HPM_P2
2024/01/31 00:01:37;;;;;;;32.60;14.55;;;;;;;-0.09;66.71;101694.69;4952827;29;20677;-40
2024/01/31 00:04:03;;;;;;;28.77;13.48;;;;;;;-0.06;67.62;101699.75;4935366;29;20042;-40
2024/01/31 00:06:29;;;;;;;27.60;13.27;;;;;;;-0.03;66.52;101704.81;4953017;29;20031;-40
2024/01/31 00:08:56;;;;;;;28.38;13.00;;;;;;;-0.15;67.60;101687.19;4953241;29;20027;-40
2024/01/31 00:11:25;;;;;;;25.80;12.30;;;;;;;-0.30;65.93;101669.75;4952951;29;20050;-40
2024/01/31 00:13:51;;;;;;;30.45;14.05;;;;;;;-0.33;66.98;101689.03;4952945;29;20038;-39
2024/01/31 00:16:16;;;;;;;27.80;12.55;;;;;;;-0.27;66.87;101685.25;4952656;29;20057;-40
2024/01/31 00:18:42;;;;;;;31.38;13.20;;;;;;;-0.17;66.16;101689.06;4952717;29;20023;-40
2024/01/31 00:21:07;;;;;;;25.52;11.95;;;;;;;-0.39;67.39;101689.41;4952906;29;20110;-39
2024/01/31 00:23:32;;;;;;;24.08;11.38;;;;;;;-0.47;67.49;101684.59;4952615;29;20125;-40
2024/01/31 00:25:58;;;;;;;23.63;10.70;;;;;;;-0.50;67.46;101684.75;4952392;29;20057;-37
2024/01/31 00:28:24;;;;;;;23.70;10.52;;;;;;;-0.57;68.26;101686.03;4952495;29;20102;-40
2024/01/31 00:30:49;;;;;;;21.63;10.10;;;;;;;-0.40;68.03;101682.47;4952675;29;20031;-37
2024/01/31 00:33:14;;;;;;;26.05;10.35;;;;;;;-0.61;67.61;101687.97;4952073;29;20081;-40
2024/01/31 00:35:40;;;;;;;19.33;9.98;;;;;;;-0.62;67.00;101683.66;4952209;29;20031;-40
2024/01/31 00:38:05;;;;;;;19.50;9.82;;;;;;;-0.58;67.18;101684.34;4952161;29;20023;-40
2024/01/31 00:40:31;;;;;;;18.45;9.52;;;;;;;-0.74;68.38;101686.09;4934792;29;20027;-38
2024/01/31 00:42:56;;;;;;;21.55;10.30;;;;;;;-0.61;67.51;101682.75;4952095;29;20023;-40
2024/01/31 00:45:23;;;;;;;19.45;9.40;;;;;;;-0.89;68.18;101678.16;4952104;29;20023;-40
2024/01/31 00:47:49;;;;;;;21.52;9.82;;;;;;;-0.78;67.87;101680.19;4952166;29;20039;-39
2024/01/31 00:50:14;;;;;;;21.45;9.68;;;;;;;-0.69;67.59;101686.69;4952260;29;20408;-40
2024/01/31 00:52:41;;;;;;;20.05;9.98;;;;;;;-0.64;67.29;101679.44;4951918;29;20480;-36
2024/01/31 00:55:06;;;;;;;17.70;8.98;;;;;;;-0.63;67.02;101684.59;4951386;28;20028;-39
2024/01/31 00:57:32;;;;;;;21.75;9.60;;;;;;;-0.59;66.33;101669.59;4951708;29;20029;-40
2024/01/31 00:59:57;;;;;;;19.25;9.75;;;;;;;-0.59;66.98;101682.66;4951779;29;20492;-39
2024/01/31 01:02:22;;;;;;;20.35;8.80;;;;;;;-0.60;67.40;101686.19;4952048;29;20023;-40
2024/01/31 01:04:48;;;;;;;20.83;9.43;;;;;;;-0.75;67.56;101679.19;4951960;29;20035;-40
2024/01/31 01:07:13;;;;;;;17.30;9.23;;;;;;;-0.66;66.90;101679.53;4951882;29;20054;-39
2024/01/31 01:09:38;;;;;;;19.05;9.05;;;;;;;-0.67;67.45;101683.03;4951829;29;20031;-38
2024/01/31 01:12:04;;;;;;;18.17;8.88;;;;;;;-0.66;67.10;101678.69;4951938;29;20043;-38
2024/01/31 01:14:29;;;;;;;19.02;9.15;;;;;;;-0.86;67.43;101677.97;4951891;29;20030;-40
2024/01/31 01:16:55;;;;;;;21.45;9.40;;;;;;;-0.64;67.59;101679.44;4952200;29;20027;-39
2024/01/31 01:19:20;;;;;;;18.05;8.70;;;;;;;-0.59;66.51;101677.44;4951746;29;20031;-38
2024/01/31 01:21:45;;;;;;;16.75;8.75;;;;;;;-0.72;68.61;101671.16;4951967;29;20110;-40
2024/01/31 01:24:11;;;;;;;18.08;9.13;;;;;;;-0.86;67.56;101664.06;4951493;29;20031;-38
2024/01/31 01:26:40;;;;;;;18.73;9.23;;;;;;;-1.01;67.74;101663.97;4951601;29;20029;-37
2024/01/31 01:29:06;;;;;;;20.23;9.33;;;;;;;-0.91;67.35;101666.09;4951264;29;20027;-39
2024/01/31 01:31:31;;;;;;;18.02;9.13;;;;;;;-0.75;67.22;101668.72;4951590;29;20778;-40
2024/01/31 01:33:56;;;;;;;20.13;9.35;;;;;;;-0.57;67.46;101657.25;4951113;29;20064;-38
2024/01/31 01:36:22;;;;;;;20.67;9.07;;;;;;;-0.66;66.90;101663.00;4951508;29;20050;-39
2024/01/31 01:38:47;;;;;;;23.08;8.82;;;;;;;-0.61;66.31;101664.44;4951815;29;20023;-38
2024/01/31 01:41:12;;;;;;;15.88;7.93;;;;;;;-0.90;66.78;101655.53;4951471;29;20125;-40
2024/01/31 01:43:39;;;;;;;18.77;8.70;;;;;;;-0.90;66.65;101655.53;4951626;29;20403;-39
2024/01/31 01:46:09;;;;;;;18.58;8.73;;;;;;;-0.98;67.32;101655.94;4951572;29;20609;-38
2024/01/31 01:48:35;;;;;;;;;;;;;;;-0.93;66.42;101655.72;4952384;29;20031;-39
2024/01/31 01:51:00;;;;;;;16.00;7.75;;;;;;;-0.94;68.49;101653.19;4951599;29;19910;-39
2024/01/31 01:53:26;;;;;;;16.00;7.70;;;;;;;-1.02;66.63;101648.38;4951701;29;20091;-38
2024/01/31 01:55:51;;;;;;;15.80;7.68;;;;;;;-0.89;66.95;101640.72;4951407;29;20158;-39
2024/01/31 01:58:17;;;;;;;15.80;7.57;;;;;;;-1.04;68.49;101653.66;4951499;29;20077;-37
2024/01/31 02:00:43;;;;;;;16.05;7.65;;;;;;;-1.11;67.55;101654.06;4934105;29;20090;-39
2024/01/31 02:03:09;;;;;;;15.20;7.95;;;;;;;-0.98;67.85;101652.50;4951609;29;20027;-40
2024/01/31 02:05:35;;;;;;;16.25;8.05;;;;;;;-1.21;67.71;101651.09;4951495;29;20034;-40
2024/01/31 02:08:00;;;;;;;17.30;7.55;;;;;;;-1.07;67.86;101647.75;4953757;28;20551;-39
2024/01/31 02:10:25;;;;;;;13.95;7.47;;;;;;;-1.09;68.77;101649.63;4954658;29;20023;-39
2024/01/31 02:12:51;;;;;;;15.25;7.45;;;;;;;-1.06;68.09;101654.69;4954707;29;20534;-40
2024/01/31 02:15:16;;;;;;;16.75;7.30;;;;;;;-0.99;67.58;101648.19;4954483;29;20024;-38
2024/01/31 02:17:42;;;;;;;15.05;7.35;;;;;;;-1.14;68.75;101644.63;4954563;29;20054;-37
2024/01/31 02:20:07;;;;;;;19.13;7.20;;;;;;;-1.22;68.34;101650.28;4954618;29;20392;-38
2024/01/31 02:22:33;;;;;;;13.63;7.38;;;;;;;-1.13;68.51;101642.88;4954400;29;20023;-38
2024/01/31 02:24:59;;;;;;;13.90;7.07;;;;;;;-0.76;66.18;101646.09;4954416;29;20421;-38
2024/01/31 02:27:25;;;;;;;16.70;7.97;;;;;;;-0.94;66.01;101634.88;4954188;29;20684;-36
2024/01/31 02:29:50;;;;;;;14.95;7.40;;;;;;;-1.25;67.48;101639.13;4954438;29;20035;-36
2024/01/31 02:32:15;;;;;;;15.95;7.50;;;;;;;-1.38;68.65;101642.38;4954125;29;20476;-39
2024/01/31 02:34:41;;;;;;;17.85;7.75;;;;;;;-1.22;68.38;101647.66;4954130;29;20196;-39
2024/01/31 02:37:06;;;;;;;15.48;7.72;;;;;;;-1.34;68.65;101640.44;4954090;29;20456;-39
2024/01/31 02:39:33;;;;;;;15.25;7.45;;;;;;;-1.30;68.10;101641.13;4954206;29;20093;-38
2024/01/31 02:41:58;;;;;;;17.77;7.63;;;;;;;-1.24;67.66;101639.06;4954016;29;20085;-40
2024/01/31 02:44:24;;;;;;;17.70;8.30;;;;;;;-1.07;67.72;101632.06;4954118;29;20620;-38
2024/01/31 02:46:49;;;;;;;22.17;8.65;;;;;;;-1.27;67.78;101630.53;4953979;29;20102;-40
2024/01/31 02:49:14;;;;;;;19.60;8.98;;;;;;;-1.39;68.35;101639.84;4954224;29;20477;-40
2024/01/31 02:51:40;;;;;;;20.05;8.48;;;;;;;-1.29;67.00;101628.00;4953913;29;20381;-40
2024/01/31 02:54:05;;;;;;;21.60;8.70;;;;;;;-1.64;68.16;101640.25;4953813;29;20057;-37
2024/01/31 02:56:30;;;;;;;19.17;9.73;;;;;;;-1.80;69.17;101635.81;4953727;29;20142;-38
2024/01/31 02:58:56;;;;;;;22.15;10.05;;;;;;;-1.55;69.16;101636.34;4954187;29;20094;-36
2024/01/31 03:01:21;;;;;;;22.95;10.38;;;;;;;-1.57;68.15;101634.66;4953955;29;20078;-40
2024/01/31 03:03:46;;;;;;;19.08;9.13;;;;;;;-1.74;70.10;101637.28;4953791;29;20147;-38
2024/01/31 03:06:12;;;;;;;16.70;8.20;;;;;;;-2.07;70.26;101637.22;4953900;29;20031;-39
2024/01/31 03:08:37;;;;;;;21.75;8.82;;;;;;;-1.90;71.77;101639.81;4954305;29;20460;-39
2024/01/31 03:11:02;;;;;;;18.88;8.07;;;;;;;-1.69;71.24;101637.06;4954425;29;20054;-37
2024/01/31 03:13:28;;;;;;;16.85;7.40;;;;;;;-1.80;69.84;101640.22;4954185;29;20035;-39
2024/01/31 03:15:53;;;;;;;15.35;7.20;;;;;;;-1.81;70.51;101641.97;4954173;29;20109;-40
2024/01/31 03:18:18;;;;;;;15.23;7.57;;;;;;;-1.78;70.30;101644.41;4953054;28;20106;-37
2024/01/31 03:20:44;;;;;;;15.65;7.32;;;;;;;-1.91;71.26;101637.28;4953993;29;20042;-39
2024/01/31 03:23:09;;;;;;;16.42;7.72;;;;;;;-2.10;70.79;101640.78;4953978;29;20049;-39
2024/01/31 03:25:34;;;;;;;17.77;7.70;;;;;;;-2.22;71.14;101639.63;4953830;29;20496;-37
2024/01/31 03:28:00;;;;;;;11.27;6.55;;;;;;;-1.92;71.32;101639.06;4953811;29;20122;-39
2024/01/31 03:30:25;;;;;;;13.32;6.72;;;;;;;-1.78;71.97;101646.19;4953508;29;20080;-39
2024/01/31 03:32:51;;;;;;;15.20;6.97;;;;;;;-1.89;70.05;101636.28;4954032;29;20051;-39
2024/01/31 03:35:16;;;;;;;17.08;7.85;;;;;;;-2.21;72.70;101638.72;4953570;29;20053;-39
2024/01/31 03:37:44;;;;;;;13.63;7.07;;;;;;;-2.09;71.42;101641.66;4953857;29;20063;-39
2024/01/31 03:40:09;;;;;;;16.02;6.65;;;;;;;-2.14;71.57;101636.66;4953489;29;20028;-40
2024/01/31 03:42:35;;;;;;;13.35;6.75;;;;;;;-1.82;71.44;101639.44;4953393;29;20027;-38
2024/01/31 03:45:03;;;;;;;15.68;6.75;;;;;;;-1.83;71.71;101635.13;4953514;29;20027;-38
2024/01/31 03:47:29;;;;;;;15.32;7.50;;;;;;;-2.03;71.17;101620.47;4953419;29;20019;-39
2024/01/31 03:49:55;;;;;;;18.83;7.95;;;;;;;-1.67;71.05;101635.22;4953781;29;20106;-36
2024/01/31 03:52:20;;;;;;;12.32;6.57;;;;;;;-1.61;68.69;101627.91;4953677;29;20031;-36
2024/01/31 03:54:45;;;;;;;12.27;6.30;;;;;;;-1.58;69.05;101621.66;4953513;29;20101;-37
2024/01/31 03:57:11;;;;;;;16.23;7.28;;;;;;;-1.66;71.11;101627.28;4953441;29;20030;-38
2024/01/31 03:59:37;;;;;;;14.38;6.97;;;;;;;-1.54;70.31;101630.19;4953292;29;20038;-35
2024/01/31 04:02:02;;;;;;;17.55;7.35;;;;;;;-1.73;70.48;101627.66;4951051;29;20031;-39
2024/01/31 04:04:28;;;;;;;19.45;7.13;;;;;;;-1.60;70.38;101629.59;4938543;29;20050;-38
2024/01/31 04:06:53;;;;;;;16.27;7.55;;;;;;;-1.64;69.31;101622.84;4936258;29;20074;-37
2024/01/31 04:09:18;;;;;;;14.63;7.00;;;;;;;-1.51;69.34;101619.59;4943899;29;20444;-39
2024/01/31 04:11:44;;;;;;;14.27;7.15;;;;;;;-1.77;70.34;101620.00;4940130;29;20038;-38
2024/01/31 04:14:09;;;;;;;14.25;7.35;;;;;;;-1.49;68.99;101622.97;4942356;29;20023;-39
2024/01/31 04:16:34;;;;;;;14.13;7.60;;;;;;;-1.72;70.38;101622.38;4943494;29;20024;-37
2024/01/31 04:19:00;;;;;;;14.55;7.10;;;;;;;-1.55;68.54;101623.28;4953480;29;20019;-35
2024/01/31 04:21:25;;;;;;;15.77;7.45;;;;;;;-1.73;68.66;101622.44;4952901;29;20046;-39
2024/01/31 04:23:51;;;;;;;18.00;7.95;;;;;;;-1.53;68.38;101630.09;4952849;29;20019;-39
2024/01/31 04:26:16;;;;;;;14.75;7.50;;;;;;;-1.75;68.47;101619.06;4952906;29;20023;-38
2024/01/31 04:28:41;;;;;;;17.63;8.07;;;;;;;-1.80;67.60;101628.00;4939357;29;20051;-40
2024/01/31 04:31:14;;;;;;;20.33;8.20;;;;;;;-1.86;68.49;101628.31;4943938;29;20364;-39
2024/01/31 04:33:40;;;;;;;22.17;8.15;;;;;;;-1.72;68.89;101622.38;4947600;29;20059;-38
2024/01/31 04:36:06;;;;;;;18.75;8.57;;;;;;;-1.94;68.86;101613.94;4952105;29;20524;-39
2024/01/31 04:38:31;;;;;;;17.80;8.27;;;;;;;-2.16;69.19;101594.16;4952160;29;20026;-36
2024/01/31 04:40:56;;;;;;;18.27;7.93;;;;;;;-1.92;68.88;101623.41;4952089;29;20034;-39
2024/01/31 04:43:22;;;;;;;16.02;8.20;;;;;;;-2.23;70.13;101629.28;4952060;29;20479;-39
2024/01/31 04:45:47;;;;;;;17.58;8.85;;;;;;;-2.09;69.34;101629.44;4952042;29;20031;-39
2024/01/31 04:48:13;;;;;;;19.27;9.02;;;;;;;-1.95;69.77;101625.31;4951623;29;20024;-39
2024/01/31 04:50:38;;;;;;;18.85;9.25;;;;;;;-1.68;68.30;101634.34;4952040;29;20023;-40
2024/01/31 04:53:04;;;;;;;18.92;9.80;;;;;;;-1.87;69.37;101641.44;4951846;29;20112;-36
2024/01/31 04:55:29;;;;;;;22.02;9.63;;;;;;;-1.75;69.35;101639.97;4951955;29;20038;-39
2024/01/31 04:57:54;;;;;;;19.50;10.13;;;;;;;-1.78;71.33;101638.34;4951484;29;20034;-38
2024/01/31 05:00:23;;;;;;;20.83;9.65;;;;;;;-1.61;69.64;101646.19;4951846;29;20041;-39
2024/01/31 05:02:49;;;;;;;24.33;11.30;;;;;;;-1.81;70.58;101644.59;4952198;29;20035;-40
2024/01/31 05:05:15;;;;;;;20.55;9.63;;;;;;;-2.25;70.18;101610.25;4952537;29;20062;-39
2024/01/31 05:07:40;;;;;;;18.45;8.68;;;;;;;-1.60;68.86;101644.41;4934409;29;20051;-41
2024/01/31 05:10:06;;;;;;;16.58;8.57;;;;;;;-1.29;68.51;101641.06;4952285;29;20051;-39
2024/01/31 05:12:31;;;;;;;17.13;8.32;;;;;;;-1.38;68.74;101639.75;4952541;29;20083;-40
2024/01/31 05:14:57;;;;;;;16.30;8.43;;;;;;;-1.72;68.77;101638.03;4952286;29;20074;-39
2024/01/31 05:17:22;;;;;;;15.27;7.53;;;;;;;-1.44;74.64;101645.31;4951813;29;20499;-38
2024/01/31 05:19:47;;;;;;;19.48;8.52;;;;;;;-1.47;69.63;101631.56;4934770;29;20028;-40
2024/01/31 05:22:13;;;;;;;16.88;7.40;;;;;;;-1.58;68.91;101638.19;4952263;29;20105;-40
2024/01/31 05:24:39;;;;;;;16.80;7.82;;;;;;;-1.55;69.02;101639.78;4951611;29;20085;-41
2024/01/31 05:27:05;;;;;;;14.85;7.45;;;;;;;-1.92;69.74;101632.97;4952114;29;20038;-40
2024/01/31 05:29:30;;;;;;;16.15;7.82;;;;;;;-1.78;69.11;101627.91;4951972;29;20024;-40
2024/01/31 05:31:56;;;;;;;17.38;8.02;;;;;;;-1.73;68.28;101638.97;4950488;29;20098;-40
2024/01/31 05:34:22;;;;;;;14.68;7.97;;;;;;;-1.78;69.34;101636.59;4912179;29;1138250;-39
2024/01/31 05:36:51;;;;;;;13.82;7.80;;;;;;;-1.70;69.70;101641.41;4952274;29;20027;-39
2024/01/31 05:39:16;;;;;;;16.88;8.35;;;;;;;-1.50;68.72;101640.41;4951217;29;20057;-41
2024/01/31 05:41:45;;;;;;;21.67;8.85;;;;;;;-1.83;68.47;101635.13;4952422;28;20094;-40
2024/01/31 05:44:10;;;;;;;18.13;8.65;;;;;;;-2.09;70.16;101642.50;4955645;29;20470;-40
2024/01/31 05:46:36;;;;;;;17.67;9.00;;;;;;;-2.21;69.81;101630.03;4955928;29;20094;-37
2024/01/31 05:49:02;;;;;;;22.15;9.38;;;;;;;-2.37;69.67;101633.41;4940547;29;20031;-39
2024/01/31 05:51:30;;;;;;;22.52;9.77;;;;;;;-2.05;69.93;101641.41;4955065;29;20015;-40
2024/01/31 05:53:55;;;;;;;18.83;9.43;;;;;;;-2.09;68.84;101632.06;4955763;29;20027;-39
2024/01/31 05:56:21;;;;;;;19.95;9.27;;;;;;;-1.71;67.96;101626.69;4956390;29;20038;-40
2024/01/31 05:58:47;;;;;;;19.92;9.07;;;;;;;-1.80;69.07;101635.81;4956444;29;20032;-37
2024/01/31 06:01:12;;;;;;;23.70;10.75;;;;;;;-1.50;68.52;101627.34;4955828;29;20023;-41
2024/01/31 06:03:38;;;;;;;28.55;12.90;;;;;;;-1.51;68.19;101636.09;4956296;29;20027;-41
2024/01/31 06:06:04;;;;;;;25.58;10.93;;;;;;;-1.19;67.20;101634.41;4955522;29;20416;-39
2024/01/31 06:08:29;;;;;;;21.20;10.90;;;;;;;-1.20;67.23;101637.97;4953327;29;20028;-41
2024/01/31 06:11:02;;;;;;;19.90;9.45;;;;;;;-0.72;65.47;101631.94;4955977;29;20035;-41
2024/01/31 06:13:28;;;;;;;21.10;9.90;;;;;;;-0.34;63.74;101639.41;4955641;29;20031;-40
2024/01/31 06:15:53;;;;;;;23.33;10.55;;;;;;;-0.24;64.39;101644.06;4955921;29;20060;-41
2024/01/31 06:18:19;;;;;;;26.52;10.38;;;;;;;-0.01;62.52;101634.88;4955496;29;20122;-40
2024/01/31 06:20:44;;;;;;;22.45;10.35;;;;;;;0.18;62.60;101645.13;4955656;29;20063;-40
2024/01/31 06:23:11;;;;;;;21.25;10.80;;;;;;;0.04;61.97;101646.84;4954905;29;20110;-44
2024/01/31 06:25:36;;;;;;;28.95;12.55;;;;;;;0.43;61.30;101646.31;4954272;29;20039;-38
2024/01/31 06:28:02;;;;;;;21.08;10.55;;;;;;;0.52;60.87;101653.63;4955131;29;20019;-39
2024/01/31 06:30:32;;;;;;;20.67;10.32;;;;;;;0.61;59.91;101654.00;4955046;29;20031;-41
2024/01/31 06:33:05;;;;;;;24.42;10.88;;;;;;;0.85;59.28;101652.50;4955103;29;20058;-38
2024/01/31 06:35:32;;;;;;;19.52;9.75;;;;;;;1.32;57.60;101643.47;4955361;29;20102;-39
2024/01/31 06:37:57;;;;;;;15.70;7.82;;;;;;;1.19;56.20;101645.19;4955415;29;20033;-27
2024/01/31 06:40:22;;;;;;;17.80;8.20;;;;;;;1.59;55.14;101637.41;4955896;29;20027;-30
2024/01/31 06:42:52;;;;;;;16.23;7.30;;;;;;;1.78;54.22;101639.69;4955181;29;20019;-25
2024/01/31 06:45:17;;;;;;;17.33;7.22;;;;;;;1.99;53.47;101654.97;4953768;29;20028;-27
2024/01/31 06:47:43;;;;;;;15.00;7.03;;;;;;;1.89;52.78;101658.19;4952757;29;20175;-27
2024/01/31 06:50:09;;;;;;;14.68;7.18;;;;;;;2.23;52.52;101655.09;4954414;29;20027;-27
2024/01/31 06:52:34;;;;;;;12.43;6.70;;;;;;;2.45;51.80;101657.97;4954473;28;20027;-27
2024/01/31 06:55:01;;;;;;;13.70;6.68;;;;;;;2.43;51.39;101661.66;4954678;29;20520;-27
2024/01/31 06:57:27;;;;;;;11.95;7.05;;;;;;;2.72;50.48;101642.13;4954629;29;20031;-26
2024/01/31 06:59:52;;;;;;;16.23;8.35;;;;;;;2.82;50.28;101662.50;4954658;29;20488;-27
2024/01/31 07:02:18;;;;;;;18.58;8.60;;;;;;;3.24;49.60;101661.31;4954593;29;20114;-25
2024/01/31 07:04:43;;;;;;;13.88;7.63;;;;;;;3.00;49.45;101658.59;4954797;29;20059;-27
2024/01/31 07:07:09;;;;;;;18.30;9.00;;;;;;;3.13;49.52;101651.53;4954548;29;20440;-27
2024/01/31 07:09:34;;;;;;;19.02;8.07;;;;;;;3.27;49.12;101657.59;4944582;29;20030;-27
2024/01/31 07:12:00;;;;;;;20.83;9.18;;;;;;;3.67;47.90;101655.56;4935557;29;20443;-27
2024/01/31 07:14:25;;;;;;;14.55;7.40;;;;;;;3.73;47.83;101654.28;4934987;29;20106;-28
2024/01/31 07:16:50;;;;;;;15.68;8.30;;;;;;;3.53;47.83;101661.00;4935270;29;20238;-26
2024/01/31 07:19:16;;;;;;;17.60;8.45;;;;;;;3.22;48.76;101657.94;4935414;29;20039;-27
2024/01/31 07:21:41;;;;;;;17.02;8.35;;;;;;;3.18;49.60;101653.84;4935250;29;20028;-27
2024/01/31 07:24:07;;;;;;;17.92;9.18;;;;;;;3.88;47.95;101647.91;4935057;29;20035;-26
2024/01/31 07:26:32;;;;;;;18.40;8.98;;;;;;;3.74;47.76;101636.69;4934597;29;20453;-27
2024/01/31 07:28:58;;;;;;;16.25;8.90;;;;;;;4.35;47.13;101642.66;4934938;29;20106;-25
2024/01/31 07:31:23;;;;;;;14.80;8.30;;;;;;;4.17;47.37;101631.72;4934654;29;20031;-27
2024/01/31 07:33:49;;;;;;;16.48;7.82;;;;;;;4.13;47.21;101645.22;4934813;29;20102;-41
2024/01/31 07:36:15;;;;;;;16.30;8.43;;;;;;;4.49;47.20;101636.31;4934570;29;20027;-39
2024/01/31 07:38:44;;;;;;;16.00;8.70;;;;;;;4.74;46.38;101640.56;4934249;29;20499;-41
2024/01/31 07:41:10;;;;;;;13.35;8.10;;;;;;;5.27;45.09;101634.63;4934656;29;20032;-40
2024/01/31 07:43:36;;;;;;;17.55;7.82;;;;;;;5.25;44.81;101629.50;4939101;29;20086;-43
2024/01/31 07:46:03;;;;;;;17.08;8.38;;;;;;;5.37;44.46;101632.09;4953527;29;20504;-41
2024/01/31 07:48:29;;;;;;;13.38;8.05;;;;;;;5.54;43.83;101628.94;4953336;29;20399;-41
2024/01/31 07:50:55;;;;;;;18.55;9.00;;;;;;;5.13;44.34;101630.47;4953632;29;20048;-45
2024/01/31 07:53:20;;;;;;;21.63;8.60;;;;;;;5.55;43.85;101627.13;4953454;29;20035;-40
2024/01/31 07:55:45;;;;;;;16.92;8.65;;;;;;;5.37;44.47;101625.03;4953976;29;20031;-40
2024/01/31 07:58:11;;;;;;;15.57;8.20;;;;;;;5.63;43.63;101622.88;4954146;29;20404;-41
2024/01/31 08:00:36;;;;;;;14.02;7.45;;;;;;;5.56;43.60;101621.75;4953877;29;20023;-41
2024/01/31 08:03:02;;;;;;;12.40;7.18;;;;;;;5.67;43.57;101626.13;4954323;29;20114;-44
2024/01/31 08:05:27;;;;;;;14.55;7.47;;;;;;;5.71;43.00;101626.72;4953801;28;20033;-41
2024/01/31 08:07:53;;;;;;;12.82;7.35;;;;;;;5.98;42.92;101615.72;4953808;29;20396;-41
2024/01/31 08:10:19;;;;;;;14.75;8.57;;;;;;;5.80;42.96;101618.03;4954018;29;20042;-42
2024/01/31 08:12:45;;;;;;;16.58;8.27;;;;;;;5.83;43.38;101613.34;4953724;29;20106;-40
2024/01/31 08:15:11;;;;;;;13.80;7.95;;;;;;;5.92;43.29;101621.47;4953834;29;20035;-41
2024/01/31 08:17:36;;;;;;;12.32;7.57;;;;;;;5.97;43.24;101616.69;4953470;29;20085;-41
2024/01/31 08:20:03;;;;;;;14.00;7.47;;;;;;;5.63;43.74;101616.78;4953753;29;20023;-41
2024/01/31 08:22:29;;;;;;;11.95;7.40;;;;;;;5.53;44.50;101605.31;4946279;29;20396;-28
2024/01/31 08:24:54;;;;;;;12.50;7.55;;;;;;;6.19;43.60;101618.38;4952178;29;20546;-40
2024/01/31 08:27:19;;;;;;;14.63;7.68;;;;;;;6.59;43.20;101618.47;4952937;29;20078;-40
2024/01/31 08:29:45;;;;;;;15.70;8.25;;;;;;;6.44;42.84;101617.97;4952925;29;20073;-42
2024/01/31 08:32:11;;;;;;;13.23;7.53;;;;;;;6.44;43.18;101619.78;4944358;29;20722;-41
2024/01/31 08:34:36;;;;;;;12.13;6.93;;;;;;;6.24;42.93;101618.81;4945066;29;20503;-39
2024/01/31 08:37:02;;;;;;;13.23;7.10;;;;;;;6.07;43.05;101623.72;4942007;29;20046;-40
2024/01/31 08:39:31;;;;;;;11.93;7.32;;;;;;;6.21;42.62;101613.78;4943561;29;20393;-28
2024/01/31 08:41:56;;;;;;;14.45;7.82;;;;;;;6.20;42.86;101607.66;4952489;29;20437;-27
2024/01/31 08:44:22;;;;;;;14.07;7.40;;;;;;;6.51;42.75;101606.84;4952794;29;20097;-27
2024/01/31 08:46:47;;;;;;;12.65;7.65;;;;;;;6.36;42.89;101601.06;4953305;29;20019;-28
2024/01/31 08:49:13;;;;;;;14.77;7.80;;;;;;;6.32;44.04;101603.16;4952798;29;20039;-28
2024/01/31 08:51:38;;;;;;;16.38;8.55;;;;;;;6.60;42.89;101595.47;4951879;29;20042;-27
2024/01/31 08:54:05;;;;;;;19.08;8.48;;;;;;;6.49;45.78;101599.03;4952513;29;20483;-27
2024/01/31 08:56:30;;;;;;;16.40;8.52;;;;;;;6.79;41.97;101594.72;4952522;29;20204;-27
2024/01/31 08:58:56;;;;;;;19.08;9.00;;;;;;;6.35;43.10;101594.09;4952978;29;20496;-27
2024/01/31 09:01:21;;;;;;;16.48;8.68;;;;;;;6.77;42.07;101592.22;4953029;29;20038;-27
2024/01/31 09:03:47;;;;;;;16.73;9.07;;;;;;;6.49;42.60;101587.63;4943518;29;20035;-28
2024/01/31 09:06:13;;;;;;;20.38;9.48;;;;;;;6.80;42.40;101586.66;4945760;29;20035;-27
2024/01/31 09:08:39;;;;;;;13.98;8.40;;;;;;;7.17;41.32;101579.94;4949728;29;20416;-26
2024/01/31 09:11:04;;;;;;;15.18;8.43;;;;;;;6.92;41.33;101565.38;4951412;29;20082;-27
2024/01/31 09:13:30;;;;;;;16.25;8.18;;;;;;;7.05;41.56;101565.97;4951376;29;20051;-25
2024/01/31 09:15:55;;;;;;;14.60;8.48;;;;;;;7.54;41.10;101571.31;4951929;28;20027;-26
2024/01/31 09:18:20;;;;;;;14.50;9.30;;;;;;;7.66;40.55;101564.09;4954394;29;20113;-29
2024/01/31 09:20:46;;;;;;;13.70;7.30;;;;;;;6.93;40.74;101559.97;4955192;29;20479;-28
2024/01/31 09:23:11;;;;;;;14.13;7.30;;;;;;;7.36;40.52;101544.69;4955056;29;20070;-27
2024/01/31 09:25:36;;;;;;;12.75;7.05;;;;;;;7.30;40.80;101547.91;4955335;29;20089;-27
2024/01/31 09:28:02;;;;;;;11.80;7.00;;;;;;;8.00;38.53;101549.41;4955674;29;20062;-28
2024/01/31 09:30:27;;;;;;;13.20;7.13;;;;;;;8.10;39.00;101538.78;4955480;29;20415;-27
2024/01/31 09:32:53;;;;;;;11.65;7.13;;;;;;;8.30;38.11;101534.25;4955170;29;20079;-27
2024/01/31 09:35:18;;;;;;;13.07;7.70;;;;;;;8.48;37.64;101526.41;4954796;29;20463;-29
2024/01/31 09:37:43;;;;;;;17.20;7.45;;;;;;;8.01;38.05;101500.72;4955239;29;20031;-26
2024/01/31 09:40:09;;;;;;;14.80;6.95;;;;;;;7.74;38.04;101514.69;4955456;29;20046;-27
2024/01/31 09:42:36;;;;;;;16.25;7.78;;;;;;;7.95;38.32;101509.22;4954705;29;20476;-28
2024/01/31 09:45:03;;;;;;;12.27;7.25;;;;;;;8.16;38.17;101505.53;4954943;29;20046;-28
2024/01/31 09:47:30;;;;;;;12.02;7.03;;;;;;;8.42;37.51;101489.84;4955528;29;20110;-27
2024/01/31 09:49:56;;;;;;;15.60;7.25;;;;;;;8.54;37.53;101488.66;4955691;29;20035;-27
2024/01/31 09:52:27;;;;;;;14.65;7.75;;;;;;;8.13;37.95;101487.25;4955932;29;20034;-27
2024/01/31 09:54:56;;;;;;;14.85;7.47;;;;;;;8.36;37.13;101475.31;4955683;29;20042;-25
2024/01/31 09:57:22;;;;;;;;;;;;;;;8.47;36.67;101479.59;4956141;29;20126;-28
2024/01/31 09:59:50;;;;;;;14.57;7.20;;;;;;;8.47;36.62;101470.81;4955284;29;20100;-27
2024/01/31 10:02:16;;;;;;;13.35;6.95;;;;;;;8.35;36.88;101468.31;4954816;29;20035;-27
2024/01/31 10:04:44;;;;;;;14.38;7.68;;;;;;;8.33;36.69;101464.97;4954808;29;20031;-28
2024/01/31 10:07:09;;;;;;;13.18;7.20;;;;;;;8.00;37.27;101455.78;4954801;29;20031;-28
2024/01/31 10:09:35;;;;;;;11.30;6.93;;;;;;;7.54;38.48;101458.25;4954454;29;20078;-27
2024/01/31 10:12:00;;;;;;;13.80;7.18;;;;;;;7.47;38.23;101453.66;4954217;29;20486;-28
2024/01/31 10:14:25;;;;;;;14.57;7.50;;;;;;;8.28;37.63;101443.38;4944666;29;20140;-27
2024/01/31 10:16:51;;;;;;;13.70;7.53;;;;;;;8.70;36.75;101444.69;4942733;29;20070;-27
2024/01/31 10:19:17;;;;;;;14.60;7.97;;;;;;;8.31;36.10;101439.59;4946400;29;20489;-28
2024/01/31 10:21:42;;;;;;;16.42;7.80;;;;;;;8.27;37.58;101440.88;4947266;29;20031;-28
2024/01/31 10:24:08;;;;;;;13.48;7.68;;;;;;;8.56;37.04;101438.91;4954963;29;20041;-26
2024/01/31 10:26:34;;;;;;;13.15;7.30;;;;;;;8.91;35.75;101436.44;4954568;29;20828;-26
2024/01/31 10:29:00;;;;;;;13.63;6.88;;;;;;;9.23;34.57;101429.78;4954611;28;20047;-29
2024/01/31 10:31:28;;;;;;;17.85;7.70;;;;;;;9.33;34.39;101428.72;4954226;29;20066;-28
2024/01/31 10:33:57;;;;;;;16.75;8.10;;;;;;;8.87;35.16;101425.31;4953777;29;20051;-27
2024/01/31 10:36:23;;;;;;;10.55;6.53;;;;;;;8.77;34.99;101419.22;4953891;29;20031;-28
2024/01/31 10:38:50;;;;;;;13.65;7.05;;;;;;;9.48;33.80;101417.50;4953632;29;20058;-27
2024/01/31 10:41:19;;;;;;;14.40;7.13;;;;;;;9.55;33.31;101392.81;4953504;29;20059;-27
2024/01/31 10:43:47;;;;;;;12.18;7.07;;;;;;;9.55;33.09;101410.59;4948306;29;20036;-28
2024/01/31 10:46:12;;;;;;;13.23;7.25;;;;;;;9.22;33.59;101410.34;4935077;29;20453;-28
2024/01/31 10:48:38;;;;;;;15.90;7.43;;;;;;;9.03;34.14;101407.88;4934736;29;20544;-27
2024/01/31 10:51:05;;;;;;;17.65;7.70;;;;;;;9.00;34.23;101406.34;4934669;29;20043;-28
2024/01/31 10:53:32;;;;;;;12.98;7.05;;;;;;;8.97;34.11;101399.53;4934396;29;20516;-27
2024/01/31 10:55:59;;;;;;;12.05;7.00;;;;;;;8.54;34.34;101392.28;4935431;29;20408;-29
2024/01/31 10:58:27;;;;;;;11.38;6.57;;;;;;;8.83;34.38;101400.03;4934353;29;20028;-29
2024/01/31 11:00:52;;;;;;;15.25;7.53;;;;;;;8.98;34.01;101392.38;4934452;29;20032;-28
2024/01/31 11:03:18;;;;;;;11.15;6.88;;;;;;;8.84;34.47;101392.94;4935007;29;20027;-26
2024/01/31 11:05:44;;;;;;;13.15;6.70;;;;;;;8.54;34.08;101376.38;4934507;29;20064;-29
2024/01/31 11:08:23;;;;;;;12.77;7.15;;;;;;;8.70;34.22;101383.66;4934370;29;20135;-27
2024/01/31 11:10:50;;;;;;;15.20;7.30;;;;;;;8.94;34.00;101377.75;4934785;29;20035;-28
2024/01/31 11:13:16;;;;;;;15.23;6.93;;;;;;;9.02;35.17;101371.66;4934209;29;20267;-32